createdAt,value
2023-05-05T00:02:17.993Z,69.82
2023-05-05T00:04:45.563Z,69.93
2023-05-05T00:07:13.160Z,69.75
2023-05-05T00:09:41.930Z,70.23
2023-05-05T00:12:09.541Z,70.11
2023-05-05T00:14:37.089Z,69.81
2023-05-05T00:17:05.382Z,70.62
2023-05-05T00:19:32.922Z,70.60
2023-05-05T00:22:00.486Z,70.52
2023-05-05T00:24:28.031Z,71.14
2023-05-05T00:26:56.023Z,71.28
2023-05-05T00:29:23.657Z,70.97
2023-05-05T00:31:52.538Z,71.49
2023-05-05T00:34:20.700Z,71.66
2023-05-05T00:36:48.536Z,71.63
2023-05-05T00:39:16.526Z,71.53
2023-05-05T00:41:44.063Z,71.63
2023-05-05T00:44:11.707Z,71.69
2023-05-05T00:46:40.693Z,71.99
2023-05-05T00:49:08.574Z,71.88
2023-05-05T00:51:36.240Z,71.73
2023-05-05T00:54:03.918Z,72.01
2023-05-05T00:56:31.882Z,71.87
2023-05-05T00:58:59.625Z,72.05
2023-05-05T01:01:27.979Z,71.81
2023-05-05T01:03:55.728Z,72.05
2023-05-05T01:06:41.439Z,72.45
2023-05-05T01:09:27.164Z,72.59
2023-05-05T01:12:12.158Z,71.72
2023-05-05T01:14:44.097Z,72.13
2023-05-05T01:17:22.069Z,72.44
2023-05-05T01:20:11.983Z,72.04
2023-05-05T01:22:53.421Z,72.63
2023-05-05T01:25:27.295Z,72.77
2023-05-05T01:28:27.437Z,72.25
2023-05-05T01:31:02.628Z,72.16
2023-05-05T01:33:37.643Z,72.39
2023-05-05T01:36:13.831Z,72.67
2023-05-05T01:38:44.862Z,73.19
2023-05-05T01:41:17.645Z,73.08
2023-05-05T01:43:49.990Z,73.18
2023-05-05T01:46:20.319Z,72.90
2023-05-05T01:48:49.383Z,73.53
2023-05-05T01:51:19.358Z,72.78
2023-05-05T01:53:47.964Z,72.98
2023-05-05T01:56:16.560Z,73.05
2023-05-05T01:58:47.255Z,73.17
2023-05-05T02:01:17.146Z,73.46
2023-05-05T02:03:47.601Z,73.65
2023-05-05T02:06:16.888Z,73.86
2023-05-05T02:08:46.112Z,73.63
2023-05-05T02:11:15.043Z,74.01
2023-05-05T02:13:47.582Z,73.78
2023-05-05T02:16:18.489Z,74.03
2023-05-05T02:18:49.050Z,73.87
2023-05-05T02:21:18.231Z,73.77
2023-05-05T02:23:56.786Z,74.13
2023-05-05T02:26:26.316Z,74.58
2023-05-05T02:29:02.253Z,75.48
2023-05-05T02:31:32.903Z,75.10
2023-05-05T02:34:05.632Z,75.70
2023-05-05T02:36:39.425Z,76.06
2023-05-05T02:39:18.257Z,76.47
2023-05-05T02:41:48.835Z,77.22
2023-05-05T02:44:27.124Z,78.23
2023-05-05T02:46:57.006Z,78.65
2023-05-05T02:49:26.502Z,78.83
2023-05-05T02:51:59.403Z,79.39
2023-05-05T02:54:32.257Z,80.06
2023-05-05T02:57:01.083Z,80.49
2023-05-05T02:59:34.698Z,80.79
2023-05-05T03:02:15.503Z,81.96
2023-05-05T03:04:50.988Z,82.06
2023-05-05T03:07:44.237Z,82.89
2023-05-05T03:10:20.623Z,82.90
2023-05-05T03:12:55.510Z,83.72
2023-05-05T03:15:38.012Z,83.58
2023-05-05T03:18:06.981Z,83.79
2023-05-05T03:20:35.927Z,83.99
2023-05-05T03:23:08.523Z,83.94
2023-05-05T03:25:43.806Z,84.49
2023-05-05T03:28:16.835Z,84.22
2023-05-05T03:30:45.603Z,84.31
2023-05-05T03:33:17.077Z,84.52
2023-05-05T03:35:45.070Z,85.32
2023-05-05T03:38:14.225Z,85.15
2023-05-05T03:40:45.030Z,85.26
2023-05-05T03:43:17.250Z,85.58
2023-05-05T03:45:45.065Z,85.76
2023-05-05T03:48:13.214Z,85.09
2023-05-05T03:50:46.126Z,85.40
2023-05-05T03:53:15.704Z,86.29
2023-05-05T03:55:44.370Z,85.87
2023-05-05T03:58:12.884Z,85.48
2023-05-05T04:00:40.695Z,85.86
2023-05-05T04:03:09.510Z,85.98
2023-05-05T04:05:38.381Z,86.15
2023-05-05T04:08:06.903Z,86.20
2023-05-05T04:10:35.159Z,86.00
2023-05-05T04:13:03.610Z,86.10
2023-05-05T04:15:34.735Z,86.78
2023-05-05T04:18:04.694Z,86.45
2023-05-05T04:20:35.413Z,86.95
2023-05-05T04:23:03.748Z,86.91
2023-05-05T04:25:31.685Z,86.88
2023-05-05T04:27:59.441Z,87.61
2023-05-05T04:30:27.469Z,87.48
2023-05-05T04:32:55.486Z,87.58
2023-05-05T04:35:23.613Z,87.93
2023-05-05T04:37:54.913Z,88.05
2023-05-05T04:40:23.435Z,88.64
2023-05-05T04:42:51.251Z,88.59
2023-05-05T04:45:19.316Z,88.53
2023-05-05T04:47:49.043Z,89.34
2023-05-05T04:50:23.056Z,89.23
2023-05-05T04:52:52.543Z,89.30
2023-05-05T04:55:20.851Z,89.94
2023-05-05T04:57:49.105Z,89.99
2023-05-05T05:00:17.530Z,89.90
2023-05-05T05:02:45.401Z,89.62
2023-05-05T05:05:14.996Z,89.91
2023-05-05T05:07:43.747Z,90.03
2023-05-05T05:12:55.905Z,90.47
2023-05-05T05:15:26.242Z,90.24
2023-05-05T05:17:55.055Z,90.61
2023-05-05T05:23:04.705Z,90.91
2023-05-05T05:25:35.781Z,90.29
2023-05-05T05:28:10.024Z,90.95
2023-05-05T05:30:43.611Z,90.78
2023-05-05T05:33:15.349Z,90.40
2023-05-05T05:35:45.790Z,90.50
2023-05-05T05:38:14.606Z,90.51
2023-05-05T05:40:44.027Z,91.21
2023-05-05T05:43:13.299Z,90.68
2023-05-05T05:48:33.723Z,90.34
2023-05-05T05:51:04.225Z,90.25
2023-05-05T05:53:34.377Z,90.61
2023-05-05T05:56:06.907Z,90.64
2023-05-05T05:58:36.667Z,90.90
2023-05-05T06:01:05.862Z,90.67
2023-05-05T06:03:34.352Z,90.77
2023-05-05T06:06:03.487Z,90.35
2023-05-05T06:08:36.849Z,90.29
2023-05-05T06:11:04.738Z,91.10
2023-05-05T06:13:35.296Z,90.22
2023-05-05T06:16:03.791Z,90.75
2023-05-05T06:18:32.029Z,90.90
2023-05-05T06:23:47.456Z,90.61
2023-05-05T06:26:23.780Z,90.86
2023-05-05T06:28:53.634Z,90.87
2023-05-05T06:31:22.071Z,90.20
2023-05-05T06:33:54.087Z,90.72
2023-05-05T06:39:08.986Z,90.55
2023-05-05T06:41:36.586Z,90.38
2023-05-05T06:44:04.878Z,89.73
2023-05-05T06:46:32.477Z,90.37
2023-05-05T06:49:00.150Z,90.63
2023-05-05T06:51:27.756Z,90.89
2023-05-05T06:53:55.254Z,90.58
2023-05-05T06:56:23.996Z,90.19
2023-05-05T06:58:51.655Z,90.53
2023-05-05T07:01:19.297Z,90.14
2023-05-05T07:03:46.891Z,90.26
2023-05-05T07:06:14.467Z,89.46
2023-05-05T07:08:42.150Z,89.62
2023-05-05T07:11:09.804Z,90.17
2023-05-05T07:13:37.331Z,90.18
2023-05-05T07:16:05.309Z,89.04
2023-05-05T07:18:32.877Z,88.95
2023-05-05T07:21:01.512Z,88.83
2023-05-05T07:23:29.013Z,88.66
2023-05-05T07:25:56.724Z,87.77
2023-05-05T07:28:24.335Z,88.03
2023-05-05T07:30:52.171Z,87.99
2023-05-05T07:33:19.764Z,87.46
2023-05-05T07:35:47.282Z,87.22
2023-05-05T07:38:14.939Z,86.29
2023-05-05T07:40:42.807Z,85.80
2023-05-05T07:43:10.597Z,85.53
2023-05-05T07:45:38.166Z,84.88
2023-05-05T07:48:05.919Z,85.16
2023-05-05T07:50:33.463Z,84.29
2023-05-05T07:53:10.826Z,84.71
2023-05-05T07:55:42.564Z,84.67
2023-05-05T07:58:11.199Z,84.48
2023-05-05T08:00:39.189Z,84.37
2023-05-05T08:03:08.954Z,83.60
2023-05-05T08:05:38.642Z,83.94
2023-05-05T08:08:07.119Z,83.23
2023-05-05T08:10:34.806Z,83.43
2023-05-05T08:13:02.493Z,83.40
2023-05-05T08:15:30.161Z,83.05
2023-05-05T08:17:57.696Z,83.08
2023-05-05T08:20:28.907Z,83.08
2023-05-05T08:22:56.904Z,82.79
2023-05-05T08:25:26.916Z,82.57
2023-05-05T08:27:54.642Z,81.94
2023-05-05T08:30:28.216Z,82.08
2023-05-05T08:32:56.064Z,81.75
2023-05-05T08:35:24.037Z,81.99
2023-05-05T08:37:52.016Z,81.71
2023-05-05T08:40:25.165Z,81.18
2023-05-05T08:42:52.876Z,81.17
2023-05-05T08:45:20.581Z,80.77
2023-05-05T08:47:48.958Z,80.17
2023-05-05T08:50:17.507Z,79.58
2023-05-05T08:52:51.650Z,79.55
2023-05-05T08:55:26.895Z,79.42
2023-05-05T08:58:01.257Z,79.35
2023-05-05T09:00:29.432Z,79.04
2023-05-05T09:02:58.855Z,78.96
2023-05-05T09:05:27.089Z,78.75
2023-05-05T09:07:54.729Z,78.84
2023-05-05T09:10:22.469Z,77.79
2023-05-05T09:12:51.599Z,77.67
2023-05-05T09:15:19.322Z,77.34
2023-05-05T09:17:47.358Z,76.91
2023-05-05T09:20:15.422Z,77.29
2023-05-05T09:22:44.792Z,77.04
2023-05-05T09:25:14.401Z,77.04
2023-05-05T09:27:43.117Z,77.32
2023-05-05T09:30:12.275Z,77.53
2023-05-05T09:32:51.272Z,77.77
2023-05-05T09:35:20.567Z,78.06
2023-05-05T09:37:48.536Z,77.89
2023-05-05T09:40:18.773Z,77.84
2023-05-05T09:42:47.462Z,77.90
2023-05-05T09:45:17.769Z,77.84
2023-05-05T09:47:47.283Z,77.63
2023-05-05T09:50:18.687Z,77.54
2023-05-05T09:53:00.450Z,77.63
2023-05-05T09:55:28.443Z,77.56
2023-05-05T09:57:56.340Z,77.66
2023-05-05T10:00:38.830Z,77.57
2023-05-05T10:03:06.832Z,77.94
2023-05-05T10:05:52.966Z,78.15
2023-05-05T10:08:22.710Z,78.53
2023-05-05T10:10:55.464Z,78.69
2023-05-05T10:13:24.354Z,78.41
2023-05-05T10:15:54.708Z,78.22
2023-05-05T10:18:23.595Z,77.98
2023-05-05T10:21:03.367Z,78.02
2023-05-05T10:23:48.008Z,77.74
2023-05-05T10:26:17.172Z,77.53
2023-05-05T10:28:49.985Z,77.66
2023-05-05T10:31:26.766Z,77.35
2023-05-05T10:34:03.551Z,76.91
2023-05-05T10:36:32.096Z,76.81
2023-05-05T10:39:00.588Z,76.64
2023-05-05T10:41:30.983Z,76.53
2023-05-05T10:44:01.342Z,76.20
2023-05-05T10:46:31.773Z,76.60
2023-05-05T10:49:13.547Z,76.40
2023-05-05T10:51:57.824Z,75.54
2023-05-05T10:54:45.779Z,75.59
2023-05-05T10:57:16.909Z,75.20
2023-05-05T10:59:44.614Z,75.07
2023-05-05T11:02:31.469Z,74.37
2023-05-05T11:05:27.592Z,74.68
2023-05-05T11:08:27.463Z,74.31
2023-05-05T11:10:55.061Z,74.24
2023-05-05T11:13:22.977Z,74.03
2023-05-05T11:15:58.170Z,73.55
2023-05-05T11:18:30.781Z,73.76
2023-05-05T11:20:58.274Z,73.98
2023-05-05T11:23:26.890Z,73.19
2023-05-05T11:25:55.891Z,73.29
2023-05-05T11:28:25.951Z,72.70
2023-05-05T11:30:57.288Z,72.45
2023-05-05T11:33:54.096Z,71.78
2023-05-05T11:36:39.879Z,71.33
2023-05-05T11:39:39.068Z,70.16
2023-05-05T11:42:40.836Z,69.06
2023-05-05T11:45:23.099Z,68.58
2023-05-05T11:48:27.138Z,68.24
2023-05-05T11:50:55.204Z,68.85
2023-05-05T11:53:23.397Z,68.50
2023-05-05T11:56:06.434Z,68.95
2023-05-05T11:58:34.046Z,69.42
2023-05-05T12:01:06.298Z,69.70
2023-05-05T12:03:38.176Z,70.04
2023-05-05T12:06:07.266Z,70.27
2023-05-05T12:08:39.168Z,70.21
2023-05-05T12:11:11.652Z,70.25
2023-05-05T12:13:39.395Z,70.55
2023-05-05T12:16:16.689Z,70.83
2023-05-05T12:18:44.378Z,71.00
2023-05-05T12:21:20.218Z,71.04
2023-05-05T12:23:47.971Z,71.63
2023-05-05T12:26:29.780Z,71.93
2023-05-05T12:29:01.101Z,71.87
2023-05-05T12:31:42.131Z,71.39
2023-05-05T12:34:11.189Z,71.56
2023-05-05T12:36:39.625Z,71.75
2023-05-05T12:39:08.015Z,71.64
2023-05-05T12:41:35.945Z,72.22
2023-05-05T12:44:04.124Z,72.21
2023-05-05T12:46:45.541Z,73.21
2023-05-05T12:49:13.630Z,73.28
2023-05-05T12:51:56.553Z,73.70
2023-05-05T12:54:25.144Z,74.13
2023-05-05T12:56:52.718Z,74.11
2023-05-05T12:59:23.369Z,75.13
2023-05-05T13:01:55.594Z,75.59
2023-05-05T13:04:25.202Z,76.45
2023-05-05T13:07:12.532Z,78.21
2023-05-05T13:09:40.785Z,79.80
2023-05-05T13:12:08.737Z,80.82
2023-05-05T13:14:36.668Z,81.42
2023-05-05T13:17:04.527Z,82.49
2023-05-05T13:19:32.156Z,83.10
2023-05-05T13:22:00.023Z,83.28
2023-05-05T13:24:38.595Z,83.90
2023-05-05T13:27:14.752Z,84.77
2023-05-05T13:29:42.516Z,85.38
2023-05-05T13:32:11.325Z,85.98
2023-05-05T13:34:39.436Z,87.40
2023-05-05T13:37:07.370Z,89.17
2023-05-05T13:39:34.881Z,90.24
2023-05-05T13:42:03.009Z,90.58
2023-05-05T13:44:31.008Z,90.38
2023-05-05T13:46:58.867Z,89.78
2023-05-05T13:49:27.138Z,89.15
2023-05-05T13:51:56.298Z,88.36
2023-05-05T13:54:23.986Z,87.76
2023-05-05T13:56:51.706Z,87.38
2023-05-05T13:59:19.311Z,87.33
2023-05-05T14:01:46.924Z,86.94
2023-05-05T14:04:14.546Z,87.95
2023-05-05T14:06:42.096Z,89.01
2023-05-05T14:09:09.662Z,90.21
2023-05-05T14:11:37.214Z,90.31
2023-05-05T14:18:18.868Z,91.09
2023-05-05T14:20:46.452Z,90.94
2023-05-05T14:23:13.992Z,91.11
2023-05-05T14:25:41.626Z,91.35
2023-05-05T16:22:43.780Z,67.67
2023-05-05T16:25:11.432Z,66.14
2023-05-05T16:27:39.030Z,65.49
2023-05-05T16:30:08.655Z,64.96
2023-05-05T16:32:36.312Z,65.11
2023-05-05T16:35:04.114Z,63.98
2023-05-05T16:37:31.713Z,63.40
2023-05-05T16:40:00.792Z,63.07
2023-05-05T16:42:28.802Z,62.13
2023-05-05T16:44:59.051Z,61.91
2023-05-05T16:47:27.372Z,62.01
2023-05-05T16:49:55.072Z,61.37
2023-05-05T16:52:22.686Z,61.36
2023-05-05T16:54:55.542Z,62.00
2023-05-05T16:57:23.809Z,61.71
2023-05-05T16:59:51.484Z,61.57
2023-05-05T17:02:19.102Z,61.47
2023-05-05T17:04:46.653Z,61.14
2023-05-05T17:07:14.224Z,61.44
2023-05-05T17:09:41.743Z,61.37
2023-05-05T17:12:09.402Z,61.85
2023-05-05T17:14:36.952Z,61.69
2023-05-05T17:17:04.536Z,61.41
2023-05-05T17:19:32.042Z,61.08
2023-05-05T17:21:59.610Z,60.92
2023-05-05T17:24:27.294Z,61.25
2023-05-05T17:26:55.598Z,62.39
2023-05-05T17:29:23.363Z,63.84
2023-05-05T17:31:51.041Z,65.17
2023-05-05T17:34:18.661Z,66.33
2023-05-05T17:36:46.298Z,66.71
2023-05-05T17:39:13.992Z,67.44
2023-05-05T17:41:42.507Z,68.47
2023-05-05T17:44:10.023Z,69.44
2023-05-05T17:46:37.726Z,70.17
2023-05-05T17:49:05.292Z,71.28
2023-05-05T17:51:33.094Z,73.33
2023-05-05T17:54:01.862Z,75.44
2023-05-05T17:56:29.570Z,76.41
2023-05-05T17:58:57.191Z,77.82
2023-05-05T18:01:26.568Z,78.19
2023-05-05T18:03:54.484Z,79.46
2023-05-05T18:06:22.011Z,79.54
2023-05-05T18:08:49.543Z,80.79
2023-05-05T18:11:17.309Z,80.92
2023-05-05T18:13:44.991Z,81.10
2023-05-05T18:16:12.613Z,81.31
2023-05-05T18:18:41.299Z,81.62
2023-05-05T18:21:12.278Z,81.88
2023-05-05T18:23:40.433Z,82.35
2023-05-05T18:26:08.720Z,82.36
2023-05-05T18:28:37.232Z,83.16
2023-05-05T18:31:05.548Z,82.60
2023-05-05T18:33:33.184Z,82.58
2023-05-05T18:36:02.414Z,83.08
2023-05-05T18:38:32.188Z,83.33
2023-05-05T18:40:59.747Z,83.36
2023-05-05T18:43:27.271Z,83.61
2023-05-05T18:45:54.867Z,84.33
2023-05-05T18:48:22.446Z,83.71
2023-05-05T18:50:51.452Z,83.93
2023-05-05T18:53:19.146Z,83.75
2023-05-05T18:55:47.284Z,83.79
2023-05-05T18:58:16.808Z,84.33
2023-05-05T19:00:44.440Z,84.20
2023-05-05T19:03:12.151Z,84.69
2023-05-05T19:05:40.778Z,84.56
2023-05-05T19:08:08.548Z,84.64
2023-05-05T19:10:36.352Z,84.71
2023-05-05T19:13:04.832Z,84.91
2023-05-05T19:15:32.728Z,85.18
2023-05-05T19:18:00.852Z,85.23
2023-05-05T19:20:30.929Z,85.40
2023-05-05T19:23:03.724Z,85.20
2023-05-05T19:25:31.612Z,85.51
2023-05-05T19:27:59.290Z,85.77
2023-05-05T19:30:27.084Z,85.79
2023-05-05T19:32:54.605Z,85.84
2023-05-05T19:35:22.491Z,86.26
2023-05-05T19:37:50.563Z,86.60
2023-05-05T19:40:18.191Z,85.96
2023-05-05T19:42:45.711Z,86.13
2023-05-05T19:45:13.429Z,86.80
2023-05-05T19:47:41.104Z,86.39
2023-05-05T19:50:09.568Z,86.92
2023-05-05T19:52:41.518Z,86.93
2023-05-05T19:55:10.592Z,86.92
2023-05-05T19:57:38.442Z,86.87
2023-05-05T20:00:07.700Z,87.30
2023-05-05T20:02:37.004Z,87.44
2023-05-05T20:05:05.380Z,87.82
2023-05-05T20:07:33.053Z,87.94
2023-05-05T20:10:01.024Z,88.04
2023-05-05T20:12:28.648Z,88.16
2023-05-05T20:14:56.318Z,88.33
2023-05-05T20:17:24.028Z,88.10
2023-05-05T20:19:51.715Z,88.44
2023-05-05T20:22:19.264Z,88.77
2023-05-05T20:24:46.875Z,89.01
2023-05-05T20:27:17.419Z,89.39
2023-05-05T20:29:45.103Z,89.23
2023-05-05T20:32:12.598Z,89.52
2023-05-05T20:34:40.195Z,89.10
2023-05-05T20:37:07.816Z,89.06
2023-05-05T20:39:35.462Z,89.75
2023-05-05T20:42:03.368Z,89.49
2023-05-05T20:44:32.106Z,89.95
2023-05-05T20:46:59.718Z,90.33
2023-05-05T20:49:27.294Z,90.26
2023-05-05T20:51:54.858Z,89.87
2023-05-05T20:54:22.427Z,89.79
2023-05-05T20:56:49.973Z,90.00
2023-05-05T20:59:17.539Z,90.09
2023-05-05T21:01:45.285Z,89.96
2023-05-05T21:04:12.839Z,90.79
2023-05-05T21:06:40.396Z,90.75
2023-05-05T21:09:08.021Z,91.10
2023-05-05T21:11:35.588Z,91.03
2023-05-05T21:14:05.540Z,90.78
2023-05-05T21:16:33.222Z,91.31
2023-05-05T21:19:00.943Z,91.25
2023-05-05T21:21:28.713Z,91.00
2023-05-05T21:23:57.670Z,91.46
2023-05-05T21:26:25.326Z,91.57
2023-05-05T21:28:52.913Z,91.08
2023-05-05T21:31:22.108Z,91.23
2023-05-05T21:33:50.029Z,91.89
2023-05-05T21:36:19.222Z,91.35
2023-05-05T21:38:47.109Z,91.25
2023-05-05T21:41:14.697Z,91.77
2023-05-05T21:43:42.454Z,92.35
2023-05-05T21:46:10.086Z,91.74
2023-05-05T21:48:39.129Z,91.81
2023-05-05T21:51:07.325Z,91.90
2023-05-05T21:53:35.104Z,91.76
2023-05-05T21:56:02.736Z,91.80
2023-05-05T21:58:30.443Z,92.34
2023-05-05T22:00:58.035Z,91.71
2023-05-05T22:03:26.288Z,91.57
2023-05-05T22:05:53.973Z,91.60
2023-05-05T22:08:21.694Z,91.89
2023-05-05T22:10:49.231Z,91.44
2023-05-05T22:13:16.916Z,91.21
2023-05-05T22:15:47.127Z,91.35
2023-05-05T22:18:15.787Z,91.32
2023-05-05T22:20:44.061Z,91.17
2023-05-05T22:23:11.958Z,91.33
2023-05-05T22:25:39.566Z,91.54
2023-05-05T22:28:07.142Z,90.60
2023-05-05T22:30:34.681Z,90.72
2023-05-05T22:33:02.575Z,90.59
2023-05-05T22:35:30.254Z,90.76
2023-05-05T22:37:58.051Z,91.27
2023-05-05T22:40:25.692Z,90.63
2023-05-05T22:42:53.291Z,91.36
2023-05-05T22:45:22.387Z,91.69
2023-05-05T22:47:50.453Z,91.30
2023-05-05T22:50:18.638Z,91.54
2023-05-05T22:52:46.209Z,91.24
2023-05-05T22:55:15.033Z,91.93
2023-05-05T22:57:43.163Z,91.87
2023-05-05T23:00:10.960Z,92.03
2023-05-05T23:02:38.939Z,91.61
2023-05-05T23:05:07.060Z,91.80
2023-05-05T23:07:34.665Z,92.11
2023-05-05T23:10:02.460Z,92.26
2023-05-05T23:12:30.196Z,92.31
2023-05-05T23:14:57.801Z,92.23
2023-05-05T23:17:25.455Z,91.72
2023-05-05T23:19:53.196Z,92.13
2023-05-05T23:22:20.802Z,92.02
2023-05-05T23:24:48.302Z,91.88
2023-05-05T23:27:15.859Z,92.13
2023-05-05T23:29:43.447Z,92.09
2023-05-05T23:32:11.043Z,91.96
2023-05-05T23:34:39.191Z,91.46
2023-05-05T23:37:06.761Z,91.69
2023-05-05T23:39:34.783Z,91.77
2023-05-05T23:42:02.417Z,91.30
2023-05-05T23:44:30.052Z,91.17
2023-05-05T23:46:57.648Z,91.42
2023-05-05T23:49:26.435Z,90.90
2023-05-05T23:51:54.021Z,91.24
2023-05-05T23:54:21.543Z,90.44
2023-05-05T23:56:49.154Z,91.04
2023-05-05T23:59:16.682Z,91.04
